Ryuhomaru — JD2639 — position and weather

sailwx.info

Track history (hours):
 
Tides and Currents Weather Stations Pressure Air Temp Water Temp Dewpoint Dewpoint Depression Visibility Wind Speed Wind Dir Waves Ship Positions

Ryuhomaru

Last reported at 2015-Apr-19 04:33 UTC. Time now 2015-Apr-19 04:40 UTC.
Position N 34°33' E 135°22'.

Length 42 m; draft 3.5 m.

Type: Tug. MMSI: 431000586.

Date/timePositionNaut miles runAvg speedWind from/ knotsBaromVisibWave heightAir tempDewpointWater temp
2015-Apr-19 04:33N 34°33' E 135°22'2 2.2
2015-Apr-19 03:32N 34°34' E 135°24'0 0.1
2015-Apr-19 02:33N 34°34' E 135°24'0 0.0
2015-Apr-19 01:29N 34°34' E 135°24'0 0.1
2015-Apr-19 00:33N 34°34' E 135°24'0 0.0
2015-Apr-18 23:33N 34°34' E 135°24'0 0.1
2015-Apr-18 22:32N 34°34' E 135°24'0 0.1
2015-Apr-18 21:32N 34°34' E 135°24'0 0.2
2015-Apr-18 20:33N 34°34' E 135°24'0 0.1
2015-Apr-18 19:33N 34°34' E 135°24'0 0.1
2015-Apr-18 18:33N 34°34' E 135°24'0 0.0
2015-Apr-18 17:33N 34°34' E 135°24'0 0.1
2015-Apr-18 16:32N 34°34' E 135°24'0 0.1
2015-Apr-18 15:33N 34°34' E 135°24'0 0.1
2015-Apr-18 14:33N 34°34' E 135°24'0 0.1
2015-Apr-18 13:33N 34°34' E 135°24'0 0.0
2015-Apr-18 12:31N 34°34' E 135°24'0 0.0
2015-Apr-18 11:33N 34°34' E 135°24'0 0.1
2015-Apr-18 10:33N 34°34' E 135°24'0 0.0
2015-Apr-18 09:33N 34°34' E 135°24'0 0.1
2015-Apr-18 08:31N 34°34' E 135°24'0 0.0
2015-Apr-18 07:33N 34°34' E 135°24'0 0.0
2015-Apr-18 06:19N 34°34' E 135°24'0 0.1
2015-Apr-18 05:28N 34°34' E 135°24'0 0.0
2015-Apr-18 04:31N 34°34' E 135°24'0 0.0
2015-Apr-18 03:32N 34°34' E 135°24'0 0.0
2015-Apr-18 02:32N 34°34' E 135°24'0 0.1
2015-Apr-18 01:32N 34°34' E 135°24'0 0.0
2015-Apr-18 00:24N 34°34' E 135°24'0 0.1
2015-Apr-17 23:12N 34°34' E 135°24'4 3.2
2015-Apr-17 22:04N 34°33' E 135°20'2 4.3
2015-Apr-17 21:33N 34°32' E 135°18'7 7.2
2015-Apr-17 20:33N 34°33' E 135°27'2 0.1
2015-Apr-17 01:27N 34°33' E 135°24'2 2.3
2015-Apr-17 00:33N 34°31' E 135°24'0 0.5
2015-Apr-16 23:33N 34°31' E 135°23'3 3.4
2015-Apr-16 22:33N 34°33' E 135°26'1 0.7
2015-Apr-16 21:33N 34°33' E 135°27'0 0.0
2015-Apr-16 07:03N 34°33' E 135°27'3 4.3
2015-Apr-16 06:27N 34°34' E 135°24'5 5.6
2015-Apr-16 05:33N 34°39' E 135°25'3 3.1
2015-Apr-16 04:33N 34°36' E 135°24'0 0.0
2015-Apr-16 03:33N 34°36' E 135°24'3 3.2
2015-Apr-16 02:33N 34°33' E 135°26'0 0.0
2015-Apr-16 01:33N 34°33' E 135°26'4 4.0
2015-Apr-16 00:33N 34°33' E 135°21'2 1.8
2015-Apr-15 23:33N 34°34' E 135°19'5 4.8
2015-Apr-15 22:32N 34°31' E 135°24'2 2.3
2015-Apr-15 21:33N 34°33' E 135°22'4 3.4
2015-Apr-15 20:31N 34°33' E 135°27'0 0.0
2015-Apr-15 19:33N 34°33' E 135°27'0 0.0
2015-Apr-15 09:33N 34°33' E 135°27'6 6.0
2015-Apr-15 08:33N 34°39' E 135°24'3 2.8
2015-Apr-15 07:34N 34°36' E 135°24'0 0.0
2015-Apr-15 06:34N 34°36' E 135°24'0 0.0
2015-Apr-15 05:33N 34°36' E 135°24'1111.1
2015-Apr-15 04:33N 34°29' E 135°14'1814.4
2015-Apr-15 03:19N 34°15' E 134°59'1113.0
2015-Apr-15 02:30N 34°25' E 135°05'1213.1
2015-Apr-15 01:34N 34°31' E 135°18'6 6.2
2015-Apr-15 00:34N 34°33' E 135°25'0 0.4
2015-Apr-14 23:29N 34°33' E 135°25'1 0.1
2015-Apr-14 03:05N 34°33' E 135°27'1 2.5
2015-Apr-14 02:32N 34°33' E 135°25'0 0.0
2015-Apr-14 01:33N 34°33' E 135°25'3 3.3
2015-Apr-14 00:33N 34°33' E 135°21'8 8.1
2015-Apr-13 23:33N 34°29' E 135°12'1613.7
2015-Apr-13 22:23N 34°17' E 134°60'7 7.4
2015-Apr-13 21:30N 34°11' E 135°01'1212.7
2015-Apr-13 20:33N 34°23' E 135°02'1514.6
2015-Apr-13 19:33N 34°30' E 135°17'8 8.3
2015-Apr-13 18:33N 34°33' E 135°27'0 0.0
2015-Apr-13 17:33N 34°33' E 135°27'0 0.0
2015-Apr-13 16:33N 34°33' E 135°27'0 0.0
2015-Apr-13 15:33N 34°33' E 135°27'0 0.0
2015-Apr-13 14:33N 34°33' E 135°27'0 0.0
2015-Apr-13 13:33N 34°33' E 135°27'0 0.0
2015-Apr-13 12:33N 34°33' E 135°27'0 0.0
2015-Apr-13 11:33N 34°33' E 135°27'0 0.0
2015-Apr-13 10:33N 34°33' E 135°27'0 0.0
2015-Apr-13 09:33N 34°33' E 135°27'2 2.4
2015-Apr-13 08:34N 34°33' E 135°24'2 1.9
2015-Apr-13 07:33N 34°31' E 135°23'4 3.7
2015-Apr-13 06:33N 34°33' E 135°27'0 0.1
2015-Apr-13 05:33N 34°33' E 135°27'0 0.0
2015-Apr-13 04:33N 34°33' E 135°27'0 0.0
2015-Apr-13 03:33N 34°33' E 135°27'0 0.0
2015-Apr-13 02:33N 34°33' E 135°27'0 0.0
2015-Apr-13 01:33N 34°33' E 135°27'2 1.7
2015-Apr-13 00:29N 34°33' E 135°24'1 0.5
2015-Apr-12 23:24N 34°34' E 135°24'2 1.8
2015-Apr-12 22:33N 34°33' E 135°26'0 0.1
2015-Apr-12 21:34N 34°33' E 135°26'1 0.0
2015-Apr-12 09:25N 34°33' E 135°27'0 0.0
2015-Apr-12 08:08N 34°33' E 135°27'0 0.0
2015-Apr-12 07:32N 34°33' E 135°27'0 0.0
2015-Apr-12 06:33N 34°33' E 135°27'0 0.0
2015-Apr-12 05:33N 34°33' E 135°27'0 0.0
2015-Apr-12 04:33N 34°33' E 135°27'0 0.0
2015-Apr-12 03:32N 34°33' E 135°27'2 2.0
2015-Apr-12 02:32N 34°34' E 135°24'0 0.1
2015-Apr-12 01:29N 34°34' E 135°24'4 3.8
2015-Apr-12 00:33N 34°33' E 135°20'5 5.1
2015-Apr-11 23:32N 34°33' E 135°27'0 0.1
2015-Apr-11 22:33N 34°33' E 135°27'0 0.0
2015-Apr-10 09:31N 34°33' E 135°27'4 4.0
2015-Apr-10 08:33N 34°33' E 135°22'3 2.7
2015-Apr-10 07:31N 34°33' E 135°25'1 1.4
2015-Apr-10 06:34N 34°33' E 135°27'0 0.0
2015-Apr-10 05:27N 34°33' E 135°27'0 0.0
2015-Apr-10 04:28N 34°33' E 135°27'0 0.0
2015-Apr-10 03:32N 34°33' E 135°27'0 0.0
2015-Apr-10 02:32N 34°33' E 135°27'0 0.0
2015-Apr-10 01:33N 34°33' E 135°27'0 0.0
2015-Apr-10 00:33N 34°33' E 135°27'0 0.0
2015-Apr-09 09:07N 34°33' E 135°27'1 1.5
2015-Apr-09 08:33N 34°33' E 135°26'1 0.5
2015-Apr-09 07:30N 34°33' E 135°25'3 3.4
2015-Apr-09 06:33N 34°33' E 135°21'4 4.2
2015-Apr-09 05:33N 34°33' E 135°27'  
Track history (hours):
 
Tides and Currents Weather Stations Pressure Air Temp Water Temp Dewpoint Dewpoint Depression Visibility Wind Speed Wind Dir Waves Ship Positions

Ryuhomaru

Last reported at 2015-Apr-19 04:33 UTC. Time now 2015-Apr-19 04:40 UTC.
Position N 34°33' E 135°22'.

Length 42 m; draft 3.5 m.

Type: Tug. MMSI: 431000586.

Date/timePositionNaut miles runAvg speedWind from/ knotsBaromVisibWave heightAir tempDewpointWater temp
2015-Apr-19 04:33N 34°33' E 135°22'2 2.2
2015-Apr-19 03:32N 34°34' E 135°24'0 0.1
2015-Apr-19 02:33N 34°34' E 135°24'0 0.0
2015-Apr-19 01:29N 34°34' E 135°24'0 0.1
2015-Apr-19 00:33N 34°34' E 135°24'0 0.0
2015-Apr-18 23:33N 34°34' E 135°24'0 0.1
2015-Apr-18 22:32N 34°34' E 135°24'0 0.1
2015-Apr-18 21:32N 34°34' E 135°24'0 0.2
2015-Apr-18 20:33N 34°34' E 135°24'0 0.1
2015-Apr-18 19:33N 34°34' E 135°24'0 0.1
2015-Apr-18 18:33N 34°34' E 135°24'0 0.0
2015-Apr-18 17:33N 34°34' E 135°24'0 0.1
2015-Apr-18 16:32N 34°34' E 135°24'0 0.1
2015-Apr-18 15:33N 34°34' E 135°24'0 0.1
2015-Apr-18 14:33N 34°34' E 135°24'0 0.1
2015-Apr-18 13:33N 34°34' E 135°24'0 0.0
2015-Apr-18 12:31N 34°34' E 135°24'0 0.0
2015-Apr-18 11:33N 34°34' E 135°24'0 0.1
2015-Apr-18 10:33N 34°34' E 135°24'0 0.0
2015-Apr-18 09:33N 34°34' E 135°24'0 0.1
2015-Apr-18 08:31N 34°34' E 135°24'0 0.0
2015-Apr-18 07:33N 34°34' E 135°24'0 0.0
2015-Apr-18 06:19N 34°34' E 135°24'0 0.1
2015-Apr-18 05:28N 34°34' E 135°24'0 0.0
2015-Apr-18 04:31N 34°34' E 135°24'0 0.0
2015-Apr-18 03:32N 34°34' E 135°24'0 0.0
2015-Apr-18 02:32N 34°34' E 135°24'0 0.1
2015-Apr-18 01:32N 34°34' E 135°24'0 0.0
2015-Apr-18 00:24N 34°34' E 135°24'0 0.1
2015-Apr-17 23:12N 34°34' E 135°24'4 3.2
2015-Apr-17 22:04N 34°33' E 135°20'2 4.3
2015-Apr-17 21:33N 34°32' E 135°18'7 7.2
2015-Apr-17 20:33N 34°33' E 135°27'2 0.1
2015-Apr-17 01:27N 34°33' E 135°24'2 2.3
2015-Apr-17 00:33N 34°31' E 135°24'0 0.5
2015-Apr-16 23:33N 34°31' E 135°23'3 3.4
2015-Apr-16 22:33N 34°33' E 135°26'1 0.7
2015-Apr-16 21:33N 34°33' E 135°27'0 0.0
2015-Apr-16 07:03N 34°33' E 135°27'3 4.3
2015-Apr-16 06:27N 34°34' E 135°24'5 5.6
2015-Apr-16 05:33N 34°39' E 135°25'3 3.1
2015-Apr-16 04:33N 34°36' E 135°24'0 0.0
2015-Apr-16 03:33N 34°36' E 135°24'3 3.2
2015-Apr-16 02:33N 34°33' E 135°26'0 0.0
2015-Apr-16 01:33N 34°33' E 135°26'4 4.0
2015-Apr-16 00:33N 34°33' E 135°21'2 1.8
2015-Apr-15 23:33N 34°34' E 135°19'5 4.8
2015-Apr-15 22:32N 34°31' E 135°24'2 2.3
2015-Apr-15 21:33N 34°33' E 135°22'4 3.4
2015-Apr-15 20:31N 34°33' E 135°27'0 0.0
2015-Apr-15 19:33N 34°33' E 135°27'0 0.0
2015-Apr-15 09:33N 34°33' E 135°27'6 6.0
2015-Apr-15 08:33N 34°39' E 135°24'3 2.8
2015-Apr-15 07:34N 34°36' E 135°24'0 0.0
2015-Apr-15 06:34N 34°36' E 135°24'0 0.0
2015-Apr-15 05:33N 34°36' E 135°24'1111.1
2015-Apr-15 04:33N 34°29' E 135°14'1814.4
2015-Apr-15 03:19N 34°15' E 134°59'1113.0
2015-Apr-15 02:30N 34°25' E 135°05'1213.1
2015-Apr-15 01:34N 34°31' E 135°18'6 6.2
2015-Apr-15 00:34N 34°33' E 135°25'0 0.4
2015-Apr-14 23:29N 34°33' E 135°25'1 0.1
2015-Apr-14 03:05N 34°33' E 135°27'1 2.5
2015-Apr-14 02:32N 34°33' E 135°25'0 0.0
2015-Apr-14 01:33N 34°33' E 135°25'3 3.3
2015-Apr-14 00:33N 34°33' E 135°21'8 8.1
2015-Apr-13 23:33N 34°29' E 135°12'1613.7
2015-Apr-13 22:23N 34°17' E 134°60'7 7.4
2015-Apr-13 21:30N 34°11' E 135°01'1212.7
2015-Apr-13 20:33N 34°23' E 135°02'1514.6
2015-Apr-13 19:33N 34°30' E 135°17'8 8.3
2015-Apr-13 18:33N 34°33' E 135°27'0 0.0
2015-Apr-13 17:33N 34°33' E 135°27'0 0.0
2015-Apr-13 16:33N 34°33' E 135°27'0 0.0
2015-Apr-13 15:33N 34°33' E 135°27'0 0.0
2015-Apr-13 14:33N 34°33' E 135°27'0 0.0
2015-Apr-13 13:33N 34°33' E 135°27'0 0.0
2015-Apr-13 12:33N 34°33' E 135°27'0 0.0
2015-Apr-13 11:33N 34°33' E 135°27'0 0.0
2015-Apr-13 10:33N 34°33' E 135°27'0 0.0
2015-Apr-13 09:33N 34°33' E 135°27'2 2.4
2015-Apr-13 08:34N 34°33' E 135°24'2 1.9
2015-Apr-13 07:33N 34°31' E 135°23'4 3.7
2015-Apr-13 06:33N 34°33' E 135°27'0 0.1
2015-Apr-13 05:33N 34°33' E 135°27'0 0.0
2015-Apr-13 04:33N 34°33' E 135°27'0 0.0
2015-Apr-13 03:33N 34°33' E 135°27'0 0.0
2015-Apr-13 02:33N 34°33' E 135°27'0 0.0
2015-Apr-13 01:33N 34°33' E 135°27'2 1.7
2015-Apr-13 00:29N 34°33' E 135°24'1 0.5
2015-Apr-12 23:24N 34°34' E 135°24'2 1.8
2015-Apr-12 22:33N 34°33' E 135°26'0 0.1
2015-Apr-12 21:34N 34°33' E 135°26'1 0.0
2015-Apr-12 09:25N 34°33' E 135°27'0 0.0
2015-Apr-12 08:08N 34°33' E 135°27'0 0.0
2015-Apr-12 07:32N 34°33' E 135°27'0 0.0
2015-Apr-12 06:33N 34°33' E 135°27'0 0.0
2015-Apr-12 05:33N 34°33' E 135°27'0 0.0
2015-Apr-12 04:33N 34°33' E 135°27'0 0.0
2015-Apr-12 03:32N 34°33' E 135°27'2 2.0
2015-Apr-12 02:32N 34°34' E 135°24'0 0.1
2015-Apr-12 01:29N 34°34' E 135°24'4 3.8
2015-Apr-12 00:33N 34°33' E 135°20'5 5.1
2015-Apr-11 23:32N 34°33' E 135°27'0 0.1
2015-Apr-11 22:33N 34°33' E 135°27'0 0.0
2015-Apr-10 09:31N 34°33' E 135°27'4 4.0
2015-Apr-10 08:33N 34°33' E 135°22'3 2.7
2015-Apr-10 07:31N 34°33' E 135°25'1 1.4
2015-Apr-10 06:34N 34°33' E 135°27'0 0.0
2015-Apr-10 05:27N 34°33' E 135°27'0 0.0
2015-Apr-10 04:28N 34°33' E 135°27'0 0.0
2015-Apr-10 03:32N 34°33' E 135°27'0 0.0
2015-Apr-10 02:32N 34°33' E 135°27'0 0.0
2015-Apr-10 01:33N 34°33' E 135°27'0 0.0
2015-Apr-10 00:33N 34°33' E 135°27'0 0.0
2015-Apr-09 09:07N 34°33' E 135°27'1 1.5
2015-Apr-09 08:33N 34°33' E 135°26'1 0.5
2015-Apr-09 07:30N 34°33' E 135°25'3 3.4
2015-Apr-09 06:33N 34°33' E 135°21'4 4.2
2015-Apr-09 05:33N 34°33' E 135°27'  

Dump ship's entire track history